< < Back
Terminal Aerodrome Forecast


Current Version              Previous Versions:   1  2  3  4  5  6  7  8  9  

Terminal Aerodrome Forecast

686
FTUS44 KMRX 282330
TAFTYS
TAF
KTYS 282330Z 2900/2924 00000KT P6SM SCT250
     FM291400 23004KT P6SM SCT150 BKN250
     FM291800 23009KT P6SM SCT050 BKN100
     FM292100 23012KT P6SM BKN045=

Latest METAR

884
SAUS80 KWBC 290000 RRC
MTRTYS
METAR KTYS 282353Z 06004KT 10SM CLR 03/M08 A3025 RMK AO2 SLP250
T00281078 10067 20028 56007


USA.gov is the U.S. government's official web portal to all federal, state and local government web resources and services.